createdAt,value
2023-07-11T00:00:19.355Z,20.37
2023-07-11T00:01:19.593Z,20.36
2023-07-11T00:02:19.717Z,20.33
2023-07-11T00:03:19.929Z,20.30
2023-07-11T00:04:20.016Z,20.33
2023-07-11T00:05:20.204Z,20.32
2023-07-11T00:06:20.382Z,20.32
2023-07-11T00:07:20.561Z,20.29
2023-07-11T00:08:20.729Z,20.26
2023-07-11T00:09:20.895Z,20.26
2023-07-11T00:10:21.064Z,20.25
2023-07-11T00:11:21.208Z,20.20
2023-07-11T00:12:21.344Z,20.19
2023-07-11T00:13:21.462Z,20.19
2023-07-11T00:14:21.606Z,20.15
2023-07-11T00:15:21.722Z,20.13
2023-07-11T00:16:21.917Z,20.13
2023-07-11T00:17:22.036Z,20.12
2023-07-11T00:18:22.151Z,20.15
2023-07-11T00:19:22.289Z,20.09
2023-07-11T00:20:22.432Z,20.09
2023-07-11T00:21:22.540Z,20.06
2023-07-11T00:22:22.673Z,20.05
2023-07-11T00:23:22.811Z,20.00
2023-07-11T00:24:22.954Z,20.02
2023-07-11T00:25:23.068Z,20.00
2023-07-11T00:26:23.231Z,19.99
2023-07-11T00:27:23.376Z,20.00
2023-07-11T00:28:23.504Z,19.96
2023-07-11T00:29:23.629Z,19.95
2023-07-11T00:30:23.799Z,19.93
2023-07-11T00:31:23.933Z,19.96
2023-07-11T00:32:24.044Z,19.95
2023-07-11T00:33:24.138Z,19.91
2023-07-11T00:34:24.282Z,19.89
2023-07-11T00:35:24.402Z,19.92
2023-07-11T00:36:24.525Z,19.89
2023-07-11T00:37:24.648Z,19.91
2023-07-11T00:38:24.781Z,19.91
2023-07-11T00:39:24.952Z,19.86
2023-07-11T00:40:25.062Z,19.86
2023-07-11T00:41:25.212Z,19.80
2023-07-11T00:42:25.361Z,19.75
2023-07-11T00:43:25.482Z,19.74
2023-07-11T00:44:25.622Z,19.74
2023-07-11T00:45:25.757Z,19.71
2023-07-11T00:46:25.910Z,19.72
2023-07-11T00:47:26.090Z,19.70
2023-07-11T00:48:26.206Z,19.71
2023-07-11T00:49:26.369Z,19.67
2023-07-11T00:50:26.560Z,19.65
2023-07-11T00:51:26.685Z,19.64
2023-07-11T00:52:26.857Z,19.63
2023-07-11T00:53:26.996Z,19.63
2023-07-11T00:54:27.164Z,19.63
2023-07-11T00:55:27.314Z,19.56
2023-07-11T00:56:27.451Z,19.54
2023-07-11T00:57:27.627Z,19.54
2023-07-11T00:58:27.760Z,19.50
2023-07-11T00:59:27.931Z,19.50
2023-07-11T01:00:28.137Z,19.49
2023-07-11T01:01:28.274Z,19.50
2023-07-11T01:02:28.593Z,19.50
2023-07-11T01:03:28.748Z,19.47
2023-07-11T01:04:28.791Z,19.47
2023-07-11T01:05:29.004Z,19.44
2023-07-11T01:06:29.174Z,19.46
2023-07-11T01:07:29.405Z,19.46
2023-07-11T01:08:29.517Z,19.44
2023-07-11T01:09:29.679Z,19.41
2023-07-11T01:10:29.829Z,19.40
2023-07-11T01:11:29.998Z,19.40
2023-07-11T01:12:30.428Z,19.38
2023-07-11T01:13:30.408Z,19.40
2023-07-11T01:14:30.603Z,19.37
2023-07-11T01:15:30.741Z,19.38
2023-07-11T01:16:31.477Z,19.38
2023-07-11T01:17:31.051Z,19.37
2023-07-11T01:18:31.246Z,19.37
2023-07-11T01:19:31.391Z,19.40
2023-07-11T01:20:31.577Z,19.37
2023-07-11T01:21:31.748Z,19.36
2023-07-11T01:22:31.963Z,19.33
2023-07-11T01:23:32.113Z,19.31
2023-07-11T01:24:32.276Z,19.30
2023-07-11T01:25:32.467Z,19.29
2023-07-11T01:26:32.682Z,19.27
2023-07-11T01:27:32.868Z,19.26
2023-07-11T01:28:33.057Z,19.25
2023-07-11T01:29:33.256Z,19.26
2023-07-11T01:30:34.475Z,19.26
2023-07-11T01:31:33.699Z,19.26
2023-07-11T01:32:33.885Z,19.26
2023-07-11T01:33:34.037Z,19.20
2023-07-11T01:34:34.140Z,19.23
2023-07-11T01:35:34.249Z,19.22
2023-07-11T01:36:34.393Z,19.22
2023-07-11T01:37:34.527Z,19.19
2023-07-11T01:38:34.644Z,19.15
2023-07-11T01:39:34.784Z,19.17
2023-07-11T01:40:34.918Z,19.15
2023-07-11T01:41:35.073Z,19.16
2023-07-11T01:42:35.187Z,19.15
2023-07-11T01:43:35.405Z,19.12
2023-07-11T01:44:35.569Z,19.15
2023-07-11T01:45:35.789Z,19.13
2023-07-11T01:46:36.037Z,19.12
2023-07-11T01:47:36.236Z,19.10
2023-07-11T01:48:36.396Z,19.10
2023-07-11T01:49:36.531Z,19.10
2023-07-11T01:50:36.674Z,19.09
2023-07-11T01:51:36.846Z,19.09
2023-07-11T01:52:36.995Z,19.10
2023-07-11T01:53:37.151Z,19.08
2023-07-11T01:54:37.343Z,19.08
2023-07-11T01:55:37.468Z,19.05
2023-07-11T01:56:37.632Z,19.05
2023-07-11T01:57:37.944Z,19.05
2023-07-11T01:58:37.888Z,19.03
2023-07-11T01:59:38.083Z,19.05
2023-07-11T02:00:38.184Z,19.01
2023-07-11T02:01:38.365Z,19.01
2023-07-11T02:02:38.648Z,18.97
2023-07-11T02:03:38.819Z,18.97
2023-07-11T02:04:38.901Z,18.92
2023-07-11T02:05:39.105Z,18.91
2023-07-11T02:06:39.254Z,18.92
2023-07-11T02:07:39.424Z,18.89
2023-07-11T02:08:39.569Z,18.88
2023-07-11T02:09:39.733Z,18.88
2023-07-11T02:10:39.860Z,18.87
2023-07-11T02:11:40.016Z,18.85
2023-07-11T02:12:40.170Z,18.85
2023-07-11T02:13:40.318Z,18.84
2023-07-11T02:14:40.422Z,18.87
2023-07-11T02:15:40.562Z,18.87
2023-07-11T02:16:40.803Z,18.85
2023-07-11T02:17:40.966Z,18.84
2023-07-11T02:18:40.972Z,18.81
2023-07-11T02:19:41.145Z,18.82
2023-07-11T02:20:41.287Z,18.82
2023-07-11T02:21:41.939Z,18.82
2023-07-11T02:22:41.530Z,18.79
2023-07-11T02:23:41.682Z,18.78
2023-07-11T02:24:41.803Z,18.76
2023-07-11T02:25:41.968Z,18.78
2023-07-11T02:26:42.087Z,18.78
2023-07-11T02:27:42.225Z,18.76
2023-07-11T02:28:42.362Z,18.75
2023-07-11T02:29:42.496Z,18.75
2023-07-11T02:30:42.634Z,18.75
2023-07-11T02:31:42.847Z,18.78
2023-07-11T02:32:42.989Z,18.78
2023-07-11T02:33:43.070Z,18.75
2023-07-11T02:34:43.222Z,18.74
2023-07-11T02:35:43.391Z,18.76
2023-07-11T02:36:43.568Z,18.78
2023-07-11T02:37:43.785Z,18.79
2023-07-11T02:38:44.000Z,18.74
2023-07-11T02:39:44.179Z,18.75
2023-07-11T02:40:44.382Z,18.74
2023-07-11T02:41:44.578Z,18.72
2023-07-11T02:42:44.747Z,18.72
2023-07-11T02:43:44.930Z,18.71
2023-07-11T02:44:45.117Z,18.68
2023-07-11T02:45:45.360Z,18.68
2023-07-11T02:46:45.494Z,18.65
2023-07-11T02:47:45.739Z,18.64
2023-07-11T02:48:45.886Z,18.65
2023-07-11T02:49:46.106Z,18.61
2023-07-11T02:50:46.326Z,18.61
2023-07-11T02:51:46.510Z,18.61
2023-07-11T02:52:46.679Z,18.60
2023-07-11T02:53:46.909Z,18.60
2023-07-11T02:54:47.066Z,18.60
2023-07-11T02:55:47.246Z,18.58
2023-07-11T02:56:47.417Z,18.57
2023-07-11T02:57:47.644Z,18.57
2023-07-11T02:58:47.782Z,18.55
2023-07-11T02:59:47.975Z,18.54
2023-07-11T03:00:48.182Z,18.53
2023-07-11T03:01:48.339Z,18.53
2023-07-11T03:02:48.630Z,18.53
2023-07-11T03:03:48.731Z,18.51
2023-07-11T03:04:48.937Z,18.51
2023-07-11T03:05:49.113Z,18.50
2023-07-11T03:06:49.300Z,18.48
2023-07-11T03:07:49.516Z,18.50
2023-07-11T03:08:49.737Z,18.47
2023-07-11T03:09:49.923Z,18.46
2023-07-11T03:10:50.101Z,18.44
2023-07-11T03:11:50.307Z,18.44
2023-07-11T03:12:50.583Z,18.43
2023-07-11T03:13:50.723Z,18.43
2023-07-11T03:14:50.927Z,18.41
2023-07-11T03:15:51.153Z,18.39
2023-07-11T03:16:51.313Z,18.39
2023-07-11T03:17:51.496Z,18.37
2023-07-11T03:18:51.617Z,18.36
2023-07-11T03:19:51.812Z,18.33
2023-07-11T03:20:51.983Z,18.32
2023-07-11T03:21:52.177Z,18.32
2023-07-11T03:22:52.339Z,18.27
2023-07-11T03:23:52.551Z,18.30
2023-07-11T03:24:52.753Z,18.26
2023-07-11T03:25:52.978Z,18.29
2023-07-11T03:26:53.170Z,18.27
2023-07-11T03:27:53.377Z,18.29
2023-07-11T03:28:53.576Z,18.27
2023-07-11T03:29:53.813Z,18.27
2023-07-11T03:30:54.028Z,18.27
2023-07-11T03:31:54.208Z,18.29
2023-07-11T03:32:54.430Z,18.29
2023-07-11T03:33:54.604Z,18.29
2023-07-11T03:35:02.650Z,18.27
2023-07-11T03:35:55.931Z,18.27
2023-07-11T03:36:55.067Z,18.30
2023-07-11T03:37:55.220Z,18.30
2023-07-11T03:38:55.362Z,18.29
2023-07-11T03:39:55.552Z,18.32
2023-07-11T03:40:55.634Z,18.30
2023-07-11T03:41:55.777Z,18.33
2023-07-11T03:42:55.949Z,18.33
2023-07-11T03:43:56.086Z,18.33
2023-07-11T03:44:56.194Z,18.35
2023-07-11T03:45:56.394Z,18.35
2023-07-11T03:46:56.575Z,18.35
2023-07-11T03:47:56.768Z,18.27
2023-07-11T03:48:56.871Z,18.33
2023-07-11T03:49:56.997Z,18.35
2023-07-11T03:50:57.961Z,18.37
2023-07-11T03:51:57.295Z,18.41
2023-07-11T03:52:57.419Z,18.41
2023-07-11T03:53:57.560Z,18.46
2023-07-11T03:54:57.707Z,18.47
2023-07-11T03:55:57.887Z,18.53
2023-07-11T03:56:58.025Z,18.54
2023-07-11T03:57:58.199Z,18.58
2023-07-11T03:58:58.394Z,18.58
2023-07-11T03:59:58.622Z,18.63
2023-07-11T04:00:58.821Z,18.65
2023-07-11T04:01:59.048Z,18.68
2023-07-11T04:02:59.237Z,18.67
2023-07-11T04:03:59.356Z,18.71
2023-07-11T04:04:59.433Z,18.74
2023-07-11T04:05:59.594Z,18.74
2023-07-11T04:06:59.730Z,18.76
2023-07-11T04:07:59.882Z,18.81
2023-07-11T04:09:00.037Z,18.84
2023-07-11T04:10:00.194Z,18.87
2023-07-11T04:11:00.303Z,18.87
2023-07-11T04:12:00.427Z,18.88
2023-07-11T04:13:00.569Z,18.92
2023-07-11T04:14:00.780Z,18.94
2023-07-11T04:15:00.879Z,18.91
2023-07-11T04:16:01.013Z,18.98
2023-07-11T04:17:01.257Z,18.97
2023-07-11T04:18:01.359Z,19.01
2023-07-11T04:19:01.487Z,19.01
2023-07-11T04:20:01.689Z,19.02
2023-07-11T04:21:01.904Z,19.08
2023-07-11T04:22:02.100Z,19.08
2023-07-11T04:23:02.306Z,19.12
2023-07-11T04:24:02.465Z,19.13
2023-07-11T04:25:02.613Z,19.16
2023-07-11T04:26:02.794Z,19.20
2023-07-11T04:27:02.922Z,19.20
2023-07-11T04:28:03.096Z,19.23
2023-07-11T04:29:03.288Z,19.27
2023-07-11T04:30:03.480Z,19.30
2023-07-11T04:31:03.699Z,19.31
2023-07-11T04:32:03.887Z,19.34
2023-07-11T04:33:04.188Z,19.37
2023-07-11T04:34:04.293Z,19.40
2023-07-11T04:35:04.566Z,19.44
2023-07-11T04:36:04.605Z,19.47
2023-07-11T04:37:04.781Z,19.52
2023-07-11T04:38:04.929Z,19.53
2023-07-11T04:39:05.099Z,19.54
2023-07-11T04:40:05.279Z,19.56
2023-07-11T04:41:05.404Z,19.60
2023-07-11T04:42:05.576Z,19.58
2023-07-11T04:43:05.719Z,19.61
2023-07-11T04:44:05.894Z,19.61
2023-07-11T04:45:06.029Z,19.64
2023-07-11T04:46:06.552Z,19.65
2023-07-11T04:47:06.425Z,19.71
2023-07-11T04:48:06.617Z,19.74
2023-07-11T04:49:06.782Z,19.75
2023-07-11T04:50:06.967Z,19.82
2023-07-11T04:51:07.168Z,19.86
2023-07-11T04:52:07.320Z,19.89
2023-07-11T04:53:07.500Z,19.92
2023-07-11T04:54:07.703Z,19.95
2023-07-11T04:55:07.861Z,20.00
2023-07-11T04:56:08.288Z,20.04
2023-07-11T04:57:08.238Z,20.05
2023-07-11T04:58:08.401Z,20.12
2023-07-11T04:59:08.556Z,20.13
2023-07-11T05:00:08.734Z,20.20
2023-07-11T05:01:08.910Z,20.22
2023-07-11T05:02:09.065Z,20.22
2023-07-11T05:03:09.293Z,20.27
2023-07-11T05:04:09.393Z,20.32
2023-07-11T05:05:09.460Z,20.34
2023-07-11T05:06:10.171Z,20.34
2023-07-11T05:07:09.721Z,20.37
2023-07-11T05:08:09.844Z,20.37
2023-07-11T05:09:09.955Z,20.42
2023-07-11T05:10:10.120Z,20.44
2023-07-11T05:11:10.231Z,20.34
2023-07-11T05:12:10.325Z,20.37
2023-07-11T05:13:11.504Z,20.46
2023-07-11T05:14:10.699Z,20.51
2023-07-11T05:15:10.704Z,20.57
2023-07-11T05:16:11.030Z,20.60
2023-07-11T05:17:11.087Z,20.64
2023-07-11T05:18:11.080Z,20.67
2023-07-11T05:19:11.183Z,20.72
2023-07-11T05:20:11.295Z,20.75
2023-07-11T05:21:11.424Z,20.79
2023-07-11T05:22:11.550Z,20.84
2023-07-11T05:23:11.670Z,20.88
2023-07-11T05:24:11.949Z,20.89
2023-07-11T05:25:12.020Z,20.94
2023-07-11T05:26:12.196Z,20.99
2023-07-11T05:27:12.334Z,21.03
2023-07-11T05:28:12.472Z,21.09
2023-07-11T05:29:12.643Z,21.10
2023-07-11T05:30:12.818Z,21.10
2023-07-11T05:31:13.042Z,21.16
2023-07-11T05:32:13.165Z,21.18
2023-07-11T05:33:13.285Z,21.23
2023-07-11T05:34:13.466Z,21.26
2023-07-11T05:35:13.630Z,21.29
2023-07-11T05:36:13.805Z,21.32
2023-07-11T05:37:13.995Z,21.32
2023-07-11T05:38:14.221Z,21.34
2023-07-11T05:39:14.292Z,21.39
2023-07-11T05:40:14.456Z,21.39
2023-07-11T05:41:14.636Z,21.44
2023-07-11T05:42:14.800Z,21.49
2023-07-11T05:43:15.018Z,21.50
2023-07-11T05:44:15.146Z,21.51
2023-07-11T05:45:15.252Z,21.56
2023-07-11T05:46:15.444Z,21.58
2023-07-11T05:47:15.523Z,21.61
2023-07-11T05:48:15.693Z,21.62
2023-07-11T05:49:15.732Z,21.67
2023-07-11T05:50:15.845Z,21.69
2023-07-11T05:51:15.950Z,21.73
2023-07-11T05:52:16.067Z,21.74
2023-07-11T05:53:16.201Z,21.81
2023-07-11T05:54:16.312Z,21.84
2023-07-11T05:55:16.396Z,21.88
2023-07-11T05:56:16.609Z,21.91
2023-07-11T05:57:16.715Z,21.94
2023-07-11T05:58:16.865Z,21.99
2023-07-11T05:59:17.058Z,21.99
2023-07-11T06:00:17.156Z,22.05
2023-07-11T06:01:17.320Z,22.06
2023-07-11T06:02:17.445Z,22.11
2023-07-11T06:03:17.663Z,22.16
2023-07-11T06:04:17.727Z,22.20
2023-07-11T06:05:17.945Z,22.22
2023-07-11T06:06:18.097Z,22.29
2023-07-11T06:07:18.291Z,22.30
2023-07-11T06:08:18.499Z,22.42
2023-07-11T06:09:18.670Z,22.58
2023-07-11T06:10:18.757Z,22.90
2023-07-11T06:11:18.921Z,23.30
2023-07-11T06:12:19.058Z,23.84
2023-07-11T06:13:19.524Z,24.46
2023-07-11T06:14:19.352Z,25.18
2023-07-11T06:15:19.410Z,25.74
2023-07-11T06:16:19.575Z,26.32
2023-07-11T06:17:19.665Z,26.95
2023-07-11T06:18:19.814Z,27.52
2023-07-11T06:19:19.903Z,28.01
2023-07-11T06:20:20.044Z,28.50
2023-07-11T06:21:20.112Z,28.95
2023-07-11T06:22:20.170Z,29.33
2023-07-11T06:23:20.242Z,29.64
2023-07-11T06:24:20.332Z,29.95
2023-07-11T06:25:20.377Z,30.08
2023-07-11T06:26:20.414Z,30.09
2023-07-11T06:27:20.482Z,30.08
2023-07-11T06:28:20.610Z,30.01
2023-07-11T06:29:20.593Z,29.91
2023-07-11T06:30:20.689Z,29.83
2023-07-11T06:31:20.738Z,29.78
2023-07-11T06:32:20.787Z,29.74
2023-07-11T06:33:20.822Z,29.66
2023-07-11T06:34:20.837Z,29.63
2023-07-11T06:35:21.042Z,29.57
2023-07-11T06:36:21.051Z,29.49
2023-07-11T06:37:21.116Z,29.39
2023-07-11T06:38:21.244Z,29.28
2023-07-11T06:39:21.366Z,29.25
2023-07-11T06:40:21.495Z,29.19
2023-07-11T06:41:21.541Z,29.18
2023-07-11T06:42:21.612Z,29.19
2023-07-11T06:43:21.741Z,29.28
2023-07-11T06:44:21.808Z,29.34
2023-07-11T06:45:21.844Z,29.37
2023-07-11T06:46:21.889Z,29.40
2023-07-11T06:47:22.110Z,29.36
2023-07-11T06:48:22.021Z,29.45
2023-07-11T06:49:22.058Z,29.48
2023-07-11T06:50:23.000Z,29.52
2023-07-11T06:51:23.025Z,29.59
2023-07-11T06:52:22.197Z,29.64
2023-07-11T06:53:22.274Z,29.67
2023-07-11T06:54:22.308Z,29.70
2023-07-11T06:55:22.481Z,29.71
2023-07-11T06:56:22.513Z,29.71
2023-07-11T06:57:22.546Z,29.68
2023-07-11T06:58:22.621Z,29.78
2023-07-11T06:59:22.658Z,29.83
2023-07-11T07:00:22.821Z,29.94
2023-07-11T07:01:35.469Z,29.94
2023-07-11T07:02:23.952Z,30.05
2023-07-11T07:03:22.945Z,30.19
2023-07-11T07:04:22.968Z,30.25
2023-07-11T07:05:22.900Z,30.38
2023-07-11T07:06:22.966Z,30.44
2023-07-11T07:07:22.946Z,30.44
2023-07-11T07:08:22.982Z,30.66
2023-07-11T07:09:24.506Z,30.77
2023-07-11T07:10:23.007Z,30.88
2023-07-11T07:11:23.063Z,30.94
2023-07-11T07:12:22.979Z,31.01
2023-07-11T07:13:23.082Z,30.81
2023-07-11T07:14:23.055Z,30.87
2023-07-11T07:15:23.051Z,30.71
2023-07-11T07:16:23.077Z,30.62
2023-07-11T07:17:23.164Z,30.56
2023-07-11T07:18:23.029Z,30.44
2023-07-11T07:19:23.023Z,30.35
2023-07-11T07:20:23.006Z,30.62
2023-07-11T07:21:22.989Z,30.80
2023-07-11T07:22:22.990Z,30.98
2023-07-11T07:23:23.014Z,31.02
2023-07-11T07:24:23.130Z,30.97
2023-07-11T07:25:25.008Z,31.19
2023-07-11T07:26:22.972Z,31.09
2023-07-11T07:27:28.204Z,31.15
2023-07-11T07:28:24.067Z,31.11
2023-07-11T07:29:22.950Z,31.32
2023-07-11T07:30:23.073Z,31.18
2023-07-11T07:31:23.610Z,31.32
2023-07-11T07:32:23.011Z,31.50
2023-07-11T07:33:23.127Z,31.70
2023-07-11T07:34:22.980Z,31.67
2023-07-11T07:35:22.840Z,31.74
2023-07-11T07:36:22.852Z,31.97
2023-07-11T07:37:22.835Z,32.00
2023-07-11T07:38:22.844Z,32.19
2023-07-11T07:39:22.871Z,32.34
2023-07-11T07:40:22.895Z,32.42
2023-07-11T07:41:22.991Z,32.43
2023-07-11T07:42:22.941Z,32.52
2023-07-11T07:43:22.981Z,32.70
2023-07-11T07:44:22.992Z,32.52
2023-07-11T07:45:23.020Z,32.71
2023-07-11T07:46:23.059Z,32.81
2023-07-11T07:47:23.072Z,32.83
2023-07-11T07:48:22.992Z,32.94
2023-07-11T07:49:22.978Z,33.08
2023-07-11T07:50:23.138Z,33.17
2023-07-11T07:51:23.043Z,33.21
2023-07-11T07:52:23.114Z,33.25
2023-07-11T07:53:23.277Z,33.20
2023-07-11T07:54:23.165Z,33.26
2023-07-11T07:55:23.195Z,32.60
2023-07-11T07:56:23.205Z,32.86
2023-07-11T07:57:23.243Z,32.83
2023-07-11T07:58:40.535Z,32.91
2023-07-11T07:59:24.204Z,33.14
2023-07-11T08:00:23.263Z,33.38
2023-07-11T08:01:23.111Z,33.33
2023-07-11T08:02:23.248Z,33.33
2023-07-11T08:03:23.181Z,33.59
2023-07-11T08:04:23.166Z,33.65
2023-07-11T08:05:23.036Z,33.10
2023-07-11T08:06:23.596Z,33.53
2023-07-11T08:07:22.994Z,33.72
2023-07-11T08:08:23.005Z,33.63
2023-07-11T08:09:22.974Z,33.17
2023-07-11T08:10:23.026Z,33.24
2023-07-11T08:11:23.036Z,33.22
2023-07-11T08:12:22.999Z,33.29
2023-07-11T08:13:22.985Z,33.26
2023-07-11T08:14:22.970Z,33.33
2023-07-11T08:15:22.861Z,33.29
2023-07-11T08:16:29.602Z,33.50
2023-07-11T08:17:23.873Z,33.44
2023-07-11T08:18:22.866Z,33.35
2023-07-11T08:19:22.775Z,33.59
2023-07-11T08:20:22.851Z,33.84
2023-07-11T08:21:22.773Z,33.97
2023-07-11T08:22:22.698Z,33.90
2023-07-11T08:23:22.802Z,34.01
2023-07-11T08:24:22.680Z,33.73
2023-07-11T08:25:22.632Z,33.55
2023-07-11T08:26:22.663Z,33.81
2023-07-11T08:27:22.579Z,33.83
2023-07-11T08:28:22.566Z,34.11
2023-07-11T08:29:29.659Z,34.31
2023-07-11T08:30:23.468Z,34.04
2023-07-11T08:31:22.536Z,34.20
2023-07-11T08:32:22.485Z,33.73
2023-07-11T08:33:22.341Z,34.10
2023-07-11T08:34:22.319Z,34.32
2023-07-11T08:35:22.279Z,34.21
2023-07-11T08:36:22.243Z,34.11
2023-07-11T08:37:22.210Z,34.34
2023-07-11T08:38:22.179Z,34.54
2023-07-11T08:39:22.147Z,34.11
2023-07-11T08:40:31.208Z,34.29
2023-07-11T08:41:23.077Z,34.61
2023-07-11T08:42:22.022Z,34.34
2023-07-11T08:43:21.992Z,34.49
2023-07-11T08:44:21.953Z,34.32
2023-07-11T08:45:21.925Z,34.66
2023-07-11T08:46:21.914Z,34.20
2023-07-11T08:47:21.862Z,34.45
2023-07-11T08:48:21.818Z,34.73
2023-07-11T08:49:21.791Z,34.82
2023-07-11T08:50:21.730Z,34.66
2023-07-11T08:51:21.680Z,35.06
2023-07-11T08:52:21.666Z,34.78
2023-07-11T08:53:21.623Z,34.94
2023-07-11T08:54:22.499Z,35.18
2023-07-11T08:55:21.505Z,35.01
2023-07-11T08:56:21.460Z,34.65
2023-07-11T08:57:21.393Z,34.63
2023-07-11T08:58:21.399Z,34.44
2023-07-11T08:59:21.321Z,34.86
2023-07-11T09:00:21.291Z,35.00
2023-07-11T09:01:21.253Z,35.10
2023-07-11T09:02:21.212Z,35.28
2023-07-11T09:03:21.170Z,35.20
2023-07-11T09:04:21.147Z,35.34
2023-07-11T09:05:21.030Z,35.45
2023-07-11T09:06:20.992Z,35.31
2023-07-11T09:07:20.930Z,35.20
2023-07-11T09:08:20.876Z,35.08
2023-07-11T09:09:20.833Z,35.23
2023-07-11T09:10:21.593Z,35.53
2023-07-11T09:11:20.722Z,35.48
2023-07-11T09:12:20.685Z,35.61
2023-07-11T09:13:20.665Z,35.61
2023-07-11T09:14:20.597Z,34.99
2023-07-11T09:15:20.548Z,35.04
2023-07-11T09:16:20.531Z,35.10
2023-07-11T09:17:20.434Z,35.14
2023-07-11T09:18:20.404Z,34.61
2023-07-11T09:19:20.336Z,34.72
2023-07-11T09:20:20.323Z,35.13
2023-07-11T09:21:20.267Z,35.16
2023-07-11T09:22:20.198Z,34.74
2023-07-11T09:23:37.071Z,34.56
2023-07-11T09:24:22.543Z,34.73
2023-07-11T09:25:20.270Z,35.04
2023-07-11T09:26:20.282Z,35.21
2023-07-11T09:27:20.243Z,34.89
2023-07-11T09:28:20.248Z,34.79
2023-07-11T09:29:20.211Z,34.34
2023-07-11T09:30:20.248Z,34.38
2023-07-11T09:31:20.337Z,34.41
2023-07-11T09:32:20.397Z,34.63
2023-07-11T09:33:20.357Z,34.46
2023-07-11T09:34:20.285Z,34.29
2023-07-11T09:35:20.260Z,34.34
2023-07-11T09:36:20.256Z,34.38
2023-07-11T09:37:20.259Z,34.74
2023-07-11T09:38:20.258Z,35.00
2023-07-11T09:39:20.254Z,34.78
2023-07-11T09:40:20.241Z,34.80
2023-07-11T09:41:20.201Z,34.86
2023-07-11T09:42:20.160Z,35.03
2023-07-11T09:43:20.132Z,35.34
2023-07-11T09:44:20.136Z,35.55
2023-07-11T09:45:20.164Z,35.71
2023-07-11T09:46:20.183Z,35.71
2023-07-11T09:47:20.141Z,35.40
2023-07-11T09:48:20.145Z,35.28
2023-07-11T09:49:20.111Z,35.14
2023-07-11T09:50:25.851Z,35.37
2023-07-11T09:51:21.106Z,35.55
2023-07-11T09:52:20.053Z,35.71
2023-07-11T09:53:20.032Z,35.66
2023-07-11T09:54:20.009Z,35.79
2023-07-11T09:55:20.011Z,35.41
2023-07-11T09:56:20.196Z,35.58
2023-07-11T09:57:20.021Z,35.51
2023-07-11T09:58:19.891Z,35.69
2023-07-11T09:59:19.889Z,35.82
2023-07-11T10:00:23.050Z,35.82
2023-07-11T10:01:19.865Z,35.65
2023-07-11T10:02:19.814Z,35.71
2023-07-11T10:03:19.759Z,35.42
2023-07-11T10:04:19.845Z,34.61
2023-07-11T10:05:19.739Z,34.89
2023-07-11T10:06:22.918Z,35.16
2023-07-11T10:07:20.701Z,35.17
2023-07-11T10:08:19.672Z,35.45
2023-07-11T10:09:19.672Z,35.61
2023-07-11T10:10:19.685Z,35.37
2023-07-11T10:11:19.581Z,35.01
2023-07-11T10:12:19.532Z,35.33
2023-07-11T10:13:26.705Z,35.03
2023-07-11T10:14:20.521Z,34.62
2023-07-11T10:15:19.469Z,34.51
2023-07-11T10:16:19.366Z,34.94
2023-07-11T10:17:19.492Z,34.83
2023-07-11T10:18:19.405Z,34.66
2023-07-11T10:19:19.282Z,34.63
2023-07-11T10:20:19.969Z,34.15
2023-07-11T10:21:19.850Z,34.31
2023-07-11T10:22:19.179Z,34.55
2023-07-11T10:23:19.135Z,34.58
2023-07-11T10:24:19.115Z,34.59
2023-07-11T10:25:19.078Z,34.18
2023-07-11T10:26:19.088Z,34.56
2023-07-11T10:27:19.037Z,34.17
2023-07-11T10:28:19.010Z,34.01
2023-07-11T10:29:25.131Z,34.14
2023-07-11T10:30:19.942Z,33.79
2023-07-11T10:31:18.927Z,34.18
2023-07-11T10:32:18.951Z,34.34
2023-07-11T10:33:23.382Z,34.61
2023-07-11T10:34:19.860Z,34.46
2023-07-11T10:35:18.843Z,34.52
2023-07-11T10:36:18.805Z,34.10
2023-07-11T10:37:18.757Z,34.22
2023-07-11T10:38:18.767Z,34.18
2023-07-11T10:39:18.733Z,33.97
2023-07-11T10:40:18.665Z,33.72
2023-07-11T10:41:18.656Z,33.60
2023-07-11T10:42:18.595Z,33.90
2023-07-11T10:43:18.602Z,34.18
2023-07-11T10:44:18.672Z,34.35
2023-07-11T10:45:18.655Z,34.46
2023-07-11T10:46:18.667Z,34.42
2023-07-11T10:47:18.573Z,34.25
2023-07-11T10:48:18.562Z,34.11
2023-07-11T10:49:18.562Z,34.17
2023-07-11T10:50:18.546Z,34.28
2023-07-11T10:51:18.512Z,34.15
2023-07-11T10:52:18.509Z,34.07
2023-07-11T10:53:18.457Z,34.00
2023-07-11T10:54:18.459Z,33.93
2023-07-11T10:55:18.450Z,33.92
2023-07-11T10:56:20.414Z,33.66
2023-07-11T10:57:22.666Z,33.53
2023-07-11T10:58:19.681Z,33.65
2023-07-11T10:59:18.639Z,33.79
2023-07-11T11:00:18.603Z,33.87
2023-07-11T11:01:18.677Z,33.92
2023-07-11T11:02:18.637Z,34.10
2023-07-11T11:03:18.593Z,34.28
2023-07-11T11:04:18.529Z,34.69
2023-07-11T11:05:18.500Z,34.99
2023-07-11T11:06:18.452Z,35.17
2023-07-11T11:07:18.401Z,35.40
2023-07-11T11:08:18.342Z,35.35
2023-07-11T11:09:18.351Z,35.59
2023-07-11T11:10:18.277Z,35.16
2023-07-11T11:11:18.248Z,35.35
2023-07-11T11:12:18.179Z,35.23
2023-07-11T11:13:18.145Z,35.16
2023-07-11T11:14:18.212Z,35.42
2023-07-11T11:15:18.086Z,35.04
2023-07-11T11:16:18.048Z,35.20
2023-07-11T11:17:18.065Z,35.71
2023-07-11T11:18:17.978Z,35.89
2023-07-11T11:19:17.988Z,36.07
2023-07-11T11:20:17.981Z,36.30
2023-07-11T11:21:21.413Z,36.20
2023-07-11T11:22:18.799Z,36.14
2023-07-11T11:23:17.737Z,35.66
2023-07-11T11:24:17.718Z,36.40
2023-07-11T11:25:17.627Z,36.44
2023-07-11T11:26:17.579Z,36.66
2023-07-11T11:27:17.535Z,36.86
2023-07-11T11:28:17.493Z,37.09
2023-07-11T11:29:17.492Z,37.33
2023-07-11T11:30:17.407Z,37.48
2023-07-11T11:31:17.515Z,37.68
2023-07-11T11:32:17.300Z,37.82
2023-07-11T11:33:17.208Z,37.82
2023-07-11T11:34:17.175Z,37.92
2023-07-11T11:35:17.202Z,37.16
2023-07-11T11:36:17.069Z,36.54
2023-07-11T11:37:17.079Z,37.14
2023-07-11T11:38:17.064Z,37.41
2023-07-11T11:39:17.033Z,37.61
2023-07-11T11:40:17.105Z,37.54
2023-07-11T11:41:16.930Z,37.73
2023-07-11T11:42:16.910Z,37.71
2023-07-11T11:43:19.210Z,37.76
2023-07-11T11:51:16.466Z,37.55
2023-07-11T11:52:16.349Z,36.90
2023-07-11T11:53:18.353Z,36.35
2023-07-11T11:54:16.299Z,35.80
2023-07-11T11:55:16.243Z,35.72
2023-07-11T11:56:23.281Z,35.82
2023-07-11T11:57:17.164Z,36.24
2023-07-11T11:58:16.110Z,36.51
2023-07-11T11:59:16.072Z,35.63
2023-07-11T12:00:16.056Z,36.17
2023-07-11T12:01:15.986Z,36.10
2023-07-11T12:02:15.955Z,36.28
2023-07-11T12:03:15.883Z,36.35
2023-07-11T12:04:15.927Z,36.28
2023-07-11T12:05:15.866Z,35.89
2023-07-11T12:06:15.737Z,36.14
2023-07-11T12:07:15.663Z,36.06
2023-07-11T12:08:15.660Z,36.20
2023-07-11T12:09:15.593Z,36.02
2023-07-11T12:10:16.237Z,35.66
2023-07-11T12:11:15.476Z,35.31
2023-07-11T12:12:15.453Z,35.04
2023-07-11T12:13:15.409Z,34.90
2023-07-11T12:14:15.465Z,34.56
2023-07-11T12:15:15.394Z,34.51
2023-07-11T12:16:21.336Z,34.32
2023-07-11T12:17:16.387Z,34.03
2023-07-11T12:18:15.333Z,33.80
2023-07-11T12:19:15.320Z,34.01
2023-07-11T12:20:15.292Z,33.77
2023-07-11T12:21:15.311Z,33.69
2023-07-11T12:22:15.292Z,33.66
2023-07-11T12:23:29.925Z,33.66
2023-07-11T12:24:41.324Z,33.63
2023-07-11T12:25:16.250Z,33.60
2023-07-11T12:26:15.243Z,33.39
2023-07-11T12:27:15.221Z,33.45
2023-07-11T12:28:15.224Z,33.60
2023-07-11T12:29:15.177Z,33.80
2023-07-11T12:30:15.180Z,34.03
2023-07-11T12:31:15.093Z,34.12
2023-07-11T12:32:15.152Z,34.18
2023-07-11T12:33:15.081Z,34.20
2023-07-11T12:34:14.989Z,33.99
2023-07-11T12:35:15.214Z,33.46
2023-07-11T12:36:14.997Z,33.65
2023-07-11T12:37:14.904Z,33.80
2023-07-11T12:38:14.905Z,33.70
2023-07-11T12:39:14.887Z,33.53
2023-07-11T12:40:14.905Z,33.49
2023-07-11T12:41:14.869Z,33.58
2023-07-11T12:42:14.875Z,33.31
2023-07-11T12:43:14.809Z,33.36
2023-07-11T12:44:14.820Z,33.46
2023-07-11T12:45:14.773Z,33.56
2023-07-11T12:46:14.766Z,33.70
2023-07-11T12:47:14.720Z,33.63
2023-07-11T12:48:14.709Z,33.69
2023-07-11T12:49:14.675Z,33.42
2023-07-11T12:50:14.624Z,33.36
2023-07-11T12:51:14.585Z,33.50
2023-07-11T12:52:14.517Z,33.60
2023-07-11T12:53:14.553Z,33.69
2023-07-11T12:54:14.516Z,33.80
2023-07-11T12:55:14.423Z,33.87
2023-07-11T12:56:14.385Z,34.00
2023-07-11T12:57:14.359Z,34.10
2023-07-11T12:58:14.326Z,34.24
2023-07-11T12:59:14.298Z,34.31
2023-07-11T13:00:14.254Z,34.41